sensor_id;sensor_type;location;lat;lon;timestamp;temperature;humidity
44775;DHT22;31340;51.402;0.016;2022-09-20T00:01:15;17.10;86.40
44775;DHT22;31340;51.402;0.016;2022-09-20T00:03:46;17.10;86.70
44775;DHT22;31340;51.402;0.016;2022-09-20T00:06:16;17.00;86.70
44775;DHT22;31340;51.402;0.016;2022-09-20T00:08:45;16.90;86.80
44775;DHT22;31340;51.402;0.016;2022-09-20T00:11:16;16.90;86.90
44775;DHT22;31340;51.402;0.016;2022-09-20T00:13:46;16.90;87.20
44775;DHT22;31340;51.402;0.016;2022-09-20T00:16:22;16.80;87.30
44775;DHT22;31340;51.402;0.016;2022-09-20T00:18:51;16.80;87.50
44775;DHT22;31340;51.402;0.016;2022-09-20T00:21:22;16.70;87.50
44775;DHT22;31340;51.402;0.016;2022-09-20T00:23:51;16.70;87.80
44775;DHT22;31340;51.402;0.016;2022-09-20T00:26:19;16.70;88.00
44775;DHT22;31340;51.402;0.016;2022-09-20T00:28:46;16.70;88.10
44775;DHT22;31340;51.402;0.016;2022-09-20T00:31:14;16.60;88.30
44775;DHT22;31340;51.402;0.016;2022-09-20T00:33:42;16.60;88.50
44775;DHT22;31340;51.402;0.016;2022-09-20T00:36:28;16.50;88.50
44775;DHT22;31340;51.402;0.016;2022-09-20T00:38:57;16.40;88.60
44775;DHT22;31340;51.402;0.016;2022-09-20T00:41:26;16.40;88.70
44775;DHT22;31340;51.402;0.016;2022-09-20T00:43:55;16.40;88.90
44775;DHT22;31340;51.402;0.016;2022-09-20T00:46:42;16.30;89.10
44775;DHT22;31340;51.402;0.016;2022-09-20T00:49:17;16.30;89.50
44775;DHT22;31340;51.402;0.016;2022-09-20T00:51:48;16.20;89.50
44775;DHT22;31340;51.402;0.016;2022-09-20T00:54:19;16.20;89.70
44775;DHT22;31340;51.402;0.016;2022-09-20T00:56:47;16.10;89.80
44775;DHT22;31340;51.402;0.016;2022-09-20T01:01:51;16.00;90.10
44775;DHT22;31340;51.402;0.016;2022-09-20T01:04:24;15.90;90.20
44775;DHT22;31340;51.402;0.016;2022-09-20T01:06:55;15.90;90.40
44775;DHT22;31340;51.402;0.016;2022-09-20T01:09:24;15.80;90.40
44775;DHT22;31340;51.402;0.016;2022-09-20T01:11:53;15.80;90.50
44775;DHT22;31340;51.402;0.016;2022-09-20T01:14:24;15.70;90.70
44775;DHT22;31340;51.402;0.016;2022-09-20T01:16:56;15.70;90.80
44775;DHT22;31340;51.402;0.016;2022-09-20T01:19:46;15.70;91.00
44775;DHT22;31340;51.402;0.016;2022-09-20T01:22:22;15.60;91.10
44775;DHT22;31340;51.402;0.016;2022-09-20T01:27:46;15.50;91.30
44775;DHT22;31340;51.402;0.016;2022-09-20T01:30:18;15.50;91.40
44775;DHT22;31340;51.402;0.016;2022-09-20T01:35:18;15.30;91.40
44775;DHT22;31340;51.402;0.016;2022-09-20T01:38:14;15.30;91.50
44775;DHT22;31340;51.402;0.016;2022-09-20T01:41:11;15.20;91.60
44775;DHT22;31340;51.402;0.016;2022-09-20T01:46:49;15.10;91.80
44775;DHT22;31340;51.402;0.016;2022-09-20T02:04:06;14.80;92.10
44775;DHT22;31340;51.402;0.016;2022-09-20T02:34:24;14.30;93.30
44775;DHT22;31340;51.402;0.016;2022-09-20T02:37:19;14.30;93.40
44775;DHT22;31340;51.402;0.016;2022-09-20T02:42:25;14.30;93.30
44775;DHT22;31340;51.402;0.016;2022-09-20T02:45:09;14.30;93.50
44775;DHT22;31340;51.402;0.016;2022-09-20T02:47:43;14.30;93.50
44775;DHT22;31340;51.402;0.016;2022-09-20T03:04:07;14.30;93.40
44775;DHT22;31340;51.402;0.016;2022-09-20T03:06:48;14.30;93.50
44775;DHT22;31340;51.402;0.016;2022-09-20T03:14:41;14.20;93.60
44775;DHT22;31340;51.402;0.016;2022-09-20T03:17:39;14.20;93.70
44775;DHT22;31340;51.402;0.016;2022-09-20T03:23:00;14.20;93.60
44775;DHT22;31340;51.402;0.016;2022-09-20T03:42:17;14.20;93.90
44775;DHT22;31340;51.402;0.016;2022-09-20T03:48:00;14.30;94.00
44775;DHT22;31340;51.402;0.016;2022-09-20T03:56:16;14.30;94.10
44775;DHT22;31340;51.402;0.016;2022-09-20T04:18:42;14.40;94.20
44775;DHT22;31340;51.402;0.016;2022-09-20T04:24:02;14.30;94.10
44775;DHT22;31340;51.402;0.016;2022-09-20T04:26:36;14.30;94.50
44775;DHT22;31340;51.402;0.016;2022-09-20T04:32:10;14.30;94.10
44775;DHT22;31340;51.402;0.016;2022-09-20T04:34:50;14.30;94.10
44775;DHT22;31340;51.402;0.016;2022-09-20T04:37:38;14.30;94.10
44775;DHT22;31340;51.402;0.016;2022-09-20T04:40:18;14.20;94.10
44775;DHT22;31340;51.402;0.016;2022-09-20T05:00:08;14.00;94.30
44775;DHT22;31340;51.402;0.016;2022-09-20T05:28:27;13.50;94.70
44775;DHT22;31340;51.402;0.016;2022-09-20T05:31:15;13.50;94.70
44775;DHT22;31340;51.402;0.016;2022-09-20T05:39:45;13.30;94.90
44775;DHT22;31340;51.402;0.016;2022-09-20T05:42:21;13.20;94.90
44775;DHT22;31340;51.402;0.016;2022-09-20T05:45:15;13.20;94.90
44775;DHT22;31340;51.402;0.016;2022-09-20T05:48:11;13.10;94.90
44775;DHT22;31340;51.402;0.016;2022-09-20T05:50:58;13.10;95.00
44775;DHT22;31340;51.402;0.016;2022-09-20T05:56:36;13.00;95.10
44775;DHT22;31340;51.402;0.016;2022-09-20T06:05:14;12.90;95.20
44775;DHT22;31340;51.402;0.016;2022-09-20T06:21:49;12.70;95.60
44775;DHT22;31340;51.402;0.016;2022-09-20T06:24:43;12.70;95.80
44775;DHT22;31340;51.402;0.016;2022-09-20T06:27:29;12.70;95.90
44775;DHT22;31340;51.402;0.016;2022-09-20T06:30:02;12.70;95.90
44775;DHT22;31340;51.402;0.016;2022-09-20T06:32:32;12.80;95.90
44775;DHT22;31340;51.402;0.016;2022-09-20T06:35:02;12.70;96.00
44775;DHT22;31340;51.402;0.016;2022-09-20T06:37:46;12.70;96.00
44775;DHT22;31340;51.402;0.016;2022-09-20T06:43:46;12.70;96.10
44775;DHT22;31340;51.402;0.016;2022-09-20T06:46:15;12.70;96.10
44775;DHT22;31340;51.402;0.016;2022-09-20T06:48:43;12.70;96.20
44775;DHT22;31340;51.402;0.016;2022-09-20T06:51:11;12.70;96.20
44775;DHT22;31340;51.402;0.016;2022-09-20T06:53:40;12.80;96.20
44775;DHT22;31340;51.402;0.016;2022-09-20T06:56:15;12.80;96.30
44775;DHT22;31340;51.402;0.016;2022-09-20T06:58:44;12.80;96.40
44775;DHT22;31340;51.402;0.016;2022-09-20T07:01:13;12.80;96.30
44775;DHT22;31340;51.402;0.016;2022-09-20T07:03:41;12.80;96.40
44775;DHT22;31340;51.402;0.016;2022-09-20T07:06:09;12.80;96.40
44775;DHT22;31340;51.402;0.016;2022-09-20T07:08:37;12.90;96.50
44775;DHT22;31340;51.402;0.016;2022-09-20T07:11:06;12.90;96.50
44775;DHT22;31340;51.402;0.016;2022-09-20T07:13:35;12.90;96.60
44775;DHT22;31340;51.402;0.016;2022-09-20T07:16:05;12.90;96.60
44775;DHT22;31340;51.402;0.016;2022-09-20T07:18:33;13.00;96.70
44775;DHT22;31340;51.402;0.016;2022-09-20T07:21:01;13.00;96.80
44775;DHT22;31340;51.402;0.016;2022-09-20T07:23:29;13.10;96.90
44775;DHT22;31340;51.402;0.016;2022-09-20T07:25:57;13.10;96.90
44775;DHT22;31340;51.402;0.016;2022-09-20T07:28:27;13.20;96.90
44775;DHT22;31340;51.402;0.016;2022-09-20T07:30:55;13.30;97.00
44775;DHT22;31340;51.402;0.016;2022-09-20T07:33:22;13.30;96.90
44775;DHT22;31340;51.402;0.016;2022-09-20T07:35:52;13.30;96.90
44775;DHT22;31340;51.402;0.016;2022-09-20T07:38:21;13.50;97.00
44775;DHT22;31340;51.402;0.016;2022-09-20T07:41:00;13.50;97.00
44775;DHT22;31340;51.402;0.016;2022-09-20T07:43:29;13.60;97.00
44775;DHT22;31340;51.402;0.016;2022-09-20T07:45:57;13.70;97.00
44775;DHT22;31340;51.402;0.016;2022-09-20T07:48:35;13.70;97.00
44775;DHT22;31340;51.402;0.016;2022-09-20T07:51:09;13.90;97.00
44775;DHT22;31340;51.402;0.016;2022-09-20T07:53:37;14.00;96.80
44775;DHT22;31340;51.402;0.016;2022-09-20T07:58:34;14.10;96.50
44775;DHT22;31340;51.402;0.016;2022-09-20T08:01:05;14.30;96.30
44775;DHT22;31340;51.402;0.016;2022-09-20T08:03:33;14.40;96.10
44775;DHT22;31340;51.402;0.016;2022-09-20T08:06:11;14.40;95.90
44775;DHT22;31340;51.402;0.016;2022-09-20T08:08:42;14.60;95.80
44775;DHT22;31340;51.402;0.016;2022-09-20T08:11:15;14.70;95.60
44775;DHT22;31340;51.402;0.016;2022-09-20T08:13:48;14.80;95.50
44775;DHT22;31340;51.402;0.016;2022-09-20T08:16:45;14.90;95.30
44775;DHT22;31340;51.402;0.016;2022-09-20T08:19:16;15.10;95.20
44775;DHT22;31340;51.402;0.016;2022-09-20T08:21:43;15.20;95.00
44775;DHT22;31340;51.402;0.016;2022-09-20T08:24:11;15.30;94.80
44775;DHT22;31340;51.402;0.016;2022-09-20T08:26:39;15.40;94.60
44775;DHT22;31340;51.402;0.016;2022-09-20T08:29:07;15.50;94.40
44775;DHT22;31340;51.402;0.016;2022-09-20T08:31:37;15.70;94.50
44775;DHT22;31340;51.402;0.016;2022-09-20T08:34:06;15.80;94.20
44775;DHT22;31340;51.402;0.016;2022-09-20T08:36:39;15.90;93.70
44775;DHT22;31340;51.402;0.016;2022-09-20T08:39:08;16.00;93.20
44775;DHT22;31340;51.402;0.016;2022-09-20T08:42:31;16.10;92.90
44775;DHT22;31340;51.402;0.016;2022-09-20T08:45:20;16.30;92.50
44775;DHT22;31340;51.402;0.016;2022-09-20T08:48:02;16.40;92.10
44775;DHT22;31340;51.402;0.016;2022-09-20T08:50:32;16.60;91.80
44775;DHT22;31340;51.402;0.016;2022-09-20T08:53:03;16.70;91.50
44775;DHT22;31340;51.402;0.016;2022-09-20T08:55:32;16.80;91.20
44775;DHT22;31340;51.402;0.016;2022-09-20T08:58:04;16.90;90.70
44775;DHT22;31340;51.402;0.016;2022-09-20T09:00:36;17.10;90.30
44775;DHT22;31340;51.402;0.016;2022-09-20T09:03:10;17.20;89.50
44775;DHT22;31340;51.402;0.016;2022-09-20T09:05:46;17.30;88.50
44775;DHT22;31340;51.402;0.016;2022-09-20T09:08:23;17.40;87.60
44775;DHT22;31340;51.402;0.016;2022-09-20T09:11:01;17.50;87.30
44775;DHT22;31340;51.402;0.016;2022-09-20T09:16:09;17.80;85.60
44775;DHT22;31340;51.402;0.016;2022-09-20T09:18:41;17.90;84.70
44775;DHT22;31340;51.402;0.016;2022-09-20T09:21:20;18.00;85.00
44775;DHT22;31340;51.402;0.016;2022-09-20T09:24:06;18.20;82.60
44775;DHT22;31340;51.402;0.016;2022-09-20T09:26:38;18.30;81.90
44775;DHT22;31340;51.402;0.016;2022-09-20T09:29:14;18.40;81.60
44775;DHT22;31340;51.402;0.016;2022-09-20T09:31:42;18.60;80.80
44775;DHT22;31340;51.402;0.016;2022-09-20T09:34:27;18.70;80.00
44775;DHT22;31340;51.402;0.016;2022-09-20T09:36:56;18.80;78.30
44775;DHT22;31340;51.402;0.016;2022-09-20T09:39:29;18.80;78.30
44775;DHT22;31340;51.402;0.016;2022-09-20T09:41:58;18.90;77.40
44775;DHT22;31340;51.402;0.016;2022-09-20T09:44:29;18.90;77.20
44775;DHT22;31340;51.402;0.016;2022-09-20T09:46:56;18.90;78.10
44775;DHT22;31340;51.402;0.016;2022-09-20T09:49:29;19.00;76.70
44775;DHT22;31340;51.402;0.016;2022-09-20T09:52:15;19.10;75.20
44775;DHT22;31340;51.402;0.016;2022-09-20T09:54:51;19.20;74.00
44775;DHT22;31340;51.402;0.016;2022-09-20T10:00:11;19.30;73.00
44775;DHT22;31340;51.402;0.016;2022-09-20T10:11:44;19.70;70.50
44775;DHT22;31340;51.402;0.016;2022-09-20T10:14:29;19.80;70.00
44775;DHT22;31340;51.402;0.016;2022-09-20T10:22:53;20.20;70.40
44775;DHT22;31340;51.402;0.016;2022-09-20T10:31:44;20.60;67.80
44775;DHT22;31340;51.402;0.016;2022-09-20T10:37:22;20.90;65.90
44775;DHT22;31340;51.402;0.016;2022-09-20T10:42:47;21.10;64.70
44775;DHT22;31340;51.402;0.016;2022-09-20T10:48:50;21.40;63.10
44775;DHT22;31340;51.402;0.016;2022-09-20T10:52:00;21.50;63.20
44775;DHT22;31340;51.402;0.016;2022-09-20T11:00:03;21.90;61.40
44775;DHT22;31340;51.402;0.016;2022-09-20T11:05:37;22.10;59.90
44775;DHT22;31340;51.402;0.016;2022-09-20T11:08:19;22.20;59.40
44775;DHT22;31340;51.402;0.016;2022-09-20T11:10:54;22.30;58.90
44775;DHT22;31340;51.402;0.016;2022-09-20T11:13:57;22.40;58.50
44775;DHT22;31340;51.402;0.016;2022-09-20T11:22:13;22.60;56.80
44775;DHT22;31340;51.402;0.016;2022-09-20T11:24:50;22.70;57.00
44775;DHT22;31340;51.402;0.016;2022-09-20T11:27:27;22.80;56.60
44775;DHT22;31340;51.402;0.016;2022-09-20T11:30:03;23.00;56.70
44775;DHT22;31340;51.402;0.016;2022-09-20T11:37:45;23.50;55.30
44775;DHT22;31340;51.402;0.016;2022-09-20T11:40:30;23.70;54.80
44775;DHT22;31340;51.402;0.016;2022-09-20T11:43:01;23.90;54.40
44775;DHT22;31340;51.402;0.016;2022-09-20T11:45:30;24.00;54.00
44775;DHT22;31340;51.402;0.016;2022-09-20T11:48:21;24.20;53.80
44775;DHT22;31340;51.402;0.016;2022-09-20T11:51:17;24.30;52.80
44775;DHT22;31340;51.402;0.016;2022-09-20T11:56:56;24.40;51.90
44775;DHT22;31340;51.402;0.016;2022-09-20T11:59:39;24.50;52.00
44775;DHT22;31340;51.402;0.016;2022-09-20T12:02:24;24.50;51.30
44775;DHT22;31340;51.402;0.016;2022-09-20T12:04:58;24.50;51.40
44775;DHT22;31340;51.402;0.016;2022-09-20T12:07:39;24.60;51.20
44775;DHT22;31340;51.402;0.016;2022-09-20T12:10:31;24.60;51.00
44775;DHT22;31340;51.402;0.016;2022-09-20T12:13:18;24.60;50.70
44775;DHT22;31340;51.402;0.016;2022-09-20T12:16:00;24.60;50.50
44775;DHT22;31340;51.402;0.016;2022-09-20T12:21:04;24.70;50.00
44775;DHT22;31340;51.402;0.016;2022-09-20T12:28:58;24.80;49.70
44775;DHT22;31340;51.402;0.016;2022-09-20T12:39:26;25.00;49.60
44775;DHT22;31340;51.402;0.016;2022-09-20T12:44:46;25.10;49.70
44775;DHT22;31340;51.402;0.016;2022-09-20T12:47:24;25.20;49.20
44775;DHT22;31340;51.402;0.016;2022-09-20T12:49:57;25.30;49.60
44775;DHT22;31340;51.402;0.016;2022-09-20T13:00:50;25.50;48.60
44775;DHT22;31340;51.402;0.016;2022-09-20T13:03:45;25.50;48.30
44775;DHT22;31340;51.402;0.016;2022-09-20T13:14:17;25.60;48.10
44775;DHT22;31340;51.402;0.016;2022-09-20T13:17:01;25.70;48.20
44775;DHT22;31340;51.402;0.016;2022-09-20T13:19:51;25.80;47.70
44775;DHT22;31340;51.402;0.016;2022-09-20T13:22:36;25.90;47.30
44775;DHT22;31340;51.402;0.016;2022-09-20T13:25:16;25.90;47.20
44775;DHT22;31340;51.402;0.016;2022-09-20T13:27:56;26.10;47.40
44775;DHT22;31340;51.402;0.016;2022-09-20T13:30:28;26.20;46.80
44775;DHT22;31340;51.402;0.016;2022-09-20T13:33:18;26.30;45.80
44775;DHT22;31340;51.402;0.016;2022-09-20T13:35:51;26.30;45.00
44775;DHT22;31340;51.402;0.016;2022-09-20T13:38:22;26.30;45.30
44775;DHT22;31340;51.402;0.016;2022-09-20T13:40:51;26.40;45.40
44775;DHT22;31340;51.402;0.016;2022-09-20T13:43:35;26.40;46.20
44775;DHT22;31340;51.402;0.016;2022-09-20T13:46:12;26.40;46.20
44775;DHT22;31340;51.402;0.016;2022-09-20T13:48:40;26.50;45.80
44775;DHT22;31340;51.402;0.016;2022-09-20T13:51:27;26.50;45.60
44775;DHT22;31340;51.402;0.016;2022-09-20T13:54:28;26.60;45.30
44775;DHT22;31340;51.402;0.016;2022-09-20T13:57:04;26.70;45.40
44775;DHT22;31340;51.402;0.016;2022-09-20T13:59:39;26.80;45.00
44775;DHT22;31340;51.402;0.016;2022-09-20T14:02:26;26.80;43.80
44775;DHT22;31340;51.402;0.016;2022-09-20T14:04:58;26.80;44.20
44775;DHT22;31340;51.402;0.016;2022-09-20T14:07:28;26.70;44.00
44775;DHT22;31340;51.402;0.016;2022-09-20T14:09:56;26.60;44.30
44775;DHT22;31340;51.402;0.016;2022-09-20T14:12:25;26.70;44.70
44775;DHT22;31340;51.402;0.016;2022-09-20T14:14:54;26.70;45.10
44775;DHT22;31340;51.402;0.016;2022-09-20T14:17:22;26.80;45.00
44775;DHT22;31340;51.402;0.016;2022-09-20T14:19:52;26.90;44.50
44775;DHT22;31340;51.402;0.016;2022-09-20T14:22:27;26.90;44.30
44775;DHT22;31340;51.402;0.016;2022-09-20T14:24:58;27.00;44.00
44775;DHT22;31340;51.402;0.016;2022-09-20T14:27:26;27.00;44.50
44775;DHT22;31340;51.402;0.016;2022-09-20T14:29:56;27.10;44.90
44775;DHT22;31340;51.402;0.016;2022-09-20T14:32:28;27.10;44.70
44775;DHT22;31340;51.402;0.016;2022-09-20T14:35:14;27.20;44.60
44775;DHT22;31340;51.402;0.016;2022-09-20T14:37:53;27.30;44.50
44775;DHT22;31340;51.402;0.016;2022-09-20T14:40:39;27.50;44.20
44775;DHT22;31340;51.402;0.016;2022-09-20T14:43:27;27.50;43.30
44775;DHT22;31340;51.402;0.016;2022-09-20T14:45:57;27.50;43.40
44775;DHT22;31340;51.402;0.016;2022-09-20T14:48:38;27.60;43.60
44775;DHT22;31340;51.402;0.016;2022-09-20T14:56:39;27.70;42.80
44775;DHT22;31340;51.402;0.016;2022-09-20T15:01:42;27.60;43.20
44775;DHT22;31340;51.402;0.016;2022-09-20T15:04:19;27.60;43.10
44775;DHT22;31340;51.402;0.016;2022-09-20T15:06:49;27.50;42.80
44775;DHT22;31340;51.402;0.016;2022-09-20T15:09:18;27.50;42.90
44775;DHT22;31340;51.402;0.016;2022-09-20T15:12:19;27.40;43.10
44775;DHT22;31340;51.402;0.016;2022-09-20T15:14:46;27.40;43.10
44775;DHT22;31340;51.402;0.016;2022-09-20T15:17:19;27.40;43.40
44775;DHT22;31340;51.402;0.016;2022-09-20T15:19:48;27.50;43.40
44775;DHT22;31340;51.402;0.016;2022-09-20T15:22:16;27.50;43.10
44775;DHT22;31340;51.402;0.016;2022-09-20T15:24:44;27.40;42.70
44775;DHT22;31340;51.402;0.016;2022-09-20T15:27:12;27.40;42.60
44775;DHT22;31340;51.402;0.016;2022-09-20T15:29:39;27.30;43.00
44775;DHT22;31340;51.402;0.016;2022-09-20T15:32:09;27.30;43.30
44775;DHT22;31340;51.402;0.016;2022-09-20T15:34:37;27.30;43.30
44775;DHT22;31340;51.402;0.016;2022-09-20T15:37:04;27.30;43.50
44775;DHT22;31340;51.402;0.016;2022-09-20T15:39:32;27.30;43.50
44775;DHT22;31340;51.402;0.016;2022-09-20T15:42:00;27.40;43.40
44775;DHT22;31340;51.402;0.016;2022-09-20T15:44:28;27.50;43.30
44775;DHT22;31340;51.402;0.016;2022-09-20T15:46:56;27.50;43.00
44775;DHT22;31340;51.402;0.016;2022-09-20T15:49:23;27.50;43.00
44775;DHT22;31340;51.402;0.016;2022-09-20T15:51:51;27.40;43.20
44775;DHT22;31340;51.402;0.016;2022-09-20T15:54:18;27.30;43.20
44775;DHT22;31340;51.402;0.016;2022-09-20T15:56:46;27.30;43.10
44775;DHT22;31340;51.402;0.016;2022-09-20T15:59:14;27.20;43.10
44775;DHT22;31340;51.402;0.016;2022-09-20T16:01:44;27.10;43.10
44775;DHT22;31340;51.402;0.016;2022-09-20T16:04:17;26.90;43.00
44775;DHT22;31340;51.402;0.016;2022-09-20T16:06:47;26.70;43.50
44775;DHT22;31340;51.402;0.016;2022-09-20T16:09:16;26.50;43.40
44775;DHT22;31340;51.402;0.016;2022-09-20T16:11:45;26.40;43.70
44775;DHT22;31340;51.402;0.016;2022-09-20T16:14:13;26.20;44.10
44775;DHT22;31340;51.402;0.016;2022-09-20T16:16:41;26.10;44.40
44775;DHT22;31340;51.402;0.016;2022-09-20T16:19:09;25.90;44.70
44775;DHT22;31340;51.402;0.016;2022-09-20T16:21:54;25.70;44.90
44775;DHT22;31340;51.402;0.016;2022-09-20T16:24:27;25.50;45.00
44775;DHT22;31340;51.402;0.016;2022-09-20T16:26:55;25.30;45.50
44775;DHT22;31340;51.402;0.016;2022-09-20T16:29:23;25.20;46.50
44775;DHT22;31340;51.402;0.016;2022-09-20T16:31:52;25.00;46.00
44775;DHT22;31340;51.402;0.016;2022-09-20T16:34:28;24.80;46.10
44775;DHT22;31340;51.402;0.016;2022-09-20T16:39:27;24.50;46.70
44775;DHT22;31340;51.402;0.016;2022-09-20T16:41:58;24.40;46.90
44775;DHT22;31340;51.402;0.016;2022-09-20T16:44:32;24.20;47.00
44775;DHT22;31340;51.402;0.016;2022-09-20T16:47:00;24.10;47.30
44775;DHT22;31340;51.402;0.016;2022-09-20T16:49:27;24.00;47.80
44775;DHT22;31340;51.402;0.016;2022-09-20T16:51:55;23.80;48.10
44775;DHT22;31340;51.402;0.016;2022-09-20T16:54:23;23.70;48.50
44775;DHT22;31340;51.402;0.016;2022-09-20T16:56:54;23.60;48.80
44775;DHT22;31340;51.402;0.016;2022-09-20T16:59:22;23.50;49.20
44775;DHT22;31340;51.402;0.016;2022-09-20T17:01:50;23.40;49.80
44775;DHT22;31340;51.402;0.016;2022-09-20T17:04:18;23.20;50.00
44775;DHT22;31340;51.402;0.016;2022-09-20T17:06:48;23.10;50.20
44775;DHT22;31340;51.402;0.016;2022-09-20T17:09:16;23.00;50.40
44775;DHT22;31340;51.402;0.016;2022-09-20T17:11:45;22.90;50.50
44775;DHT22;31340;51.402;0.016;2022-09-20T17:14:14;22.90;50.80
44775;DHT22;31340;51.402;0.016;2022-09-20T17:16:43;22.80;51.10
44775;DHT22;31340;51.402;0.016;2022-09-20T17:19:17;22.70;51.20
44775;DHT22;31340;51.402;0.016;2022-09-20T17:21:46;22.60;51.60
44775;DHT22;31340;51.402;0.016;2022-09-20T17:24:18;22.50;52.20
44775;DHT22;31340;51.402;0.016;2022-09-20T17:26:47;22.40;52.60
44775;DHT22;31340;51.402;0.016;2022-09-20T17:29:17;22.40;53.00
44775;DHT22;31340;51.402;0.016;2022-09-20T17:31:48;22.30;53.30
44775;DHT22;31340;51.402;0.016;2022-09-20T17:34:21;22.20;53.70
44775;DHT22;31340;51.402;0.016;2022-09-20T17:36:51;22.20;53.90
44775;DHT22;31340;51.402;0.016;2022-09-20T17:39:21;22.10;54.00
44775;DHT22;31340;51.402;0.016;2022-09-20T17:41:49;22.00;54.20
44775;DHT22;31340;51.402;0.016;2022-09-20T17:44:17;22.00;54.70
44775;DHT22;31340;51.402;0.016;2022-09-20T17:46:46;21.90;54.90
44775;DHT22;31340;51.402;0.016;2022-09-20T17:49:18;21.90;55.20
44775;DHT22;31340;51.402;0.016;2022-09-20T17:51:48;21.80;55.40
44775;DHT22;31340;51.402;0.016;2022-09-20T17:54:16;21.70;55.50
44775;DHT22;31340;51.402;0.016;2022-09-20T17:56:49;21.70;55.60
44775;DHT22;31340;51.402;0.016;2022-09-20T17:59:18;21.70;55.90
44775;DHT22;31340;51.402;0.016;2022-09-20T18:01:47;21.60;56.00
44775;DHT22;31340;51.402;0.016;2022-09-20T18:04:16;21.50;56.30
44775;DHT22;31340;51.402;0.016;2022-09-20T18:06:46;21.50;56.50
44775;DHT22;31340;51.402;0.016;2022-09-20T18:09:17;21.40;56.80
44775;DHT22;31340;51.402;0.016;2022-09-20T18:11:50;21.40;57.10
44775;DHT22;31340;51.402;0.016;2022-09-20T18:14:21;21.30;57.30
44775;DHT22;31340;51.402;0.016;2022-09-20T18:16:54;21.30;57.60
44775;DHT22;31340;51.402;0.016;2022-09-20T18:19:24;21.20;58.00
44775;DHT22;31340;51.402;0.016;2022-09-20T18:22:00;21.20;58.30
44775;DHT22;31340;51.402;0.016;2022-09-20T18:24:29;21.20;58.60
44775;DHT22;31340;51.402;0.016;2022-09-20T18:26:57;21.10;58.80
44775;DHT22;31340;51.402;0.016;2022-09-20T18:29:26;21.00;58.90
44775;DHT22;31340;51.402;0.016;2022-09-20T18:31:55;21.00;59.00
44775;DHT22;31340;51.402;0.016;2022-09-20T18:34:25;20.90;59.00
44775;DHT22;31340;51.402;0.016;2022-09-20T18:36:59;20.90;59.20
44775;DHT22;31340;51.402;0.016;2022-09-20T18:39:31;20.80;59.30
44775;DHT22;31340;51.402;0.016;2022-09-20T18:42:00;20.70;59.70
44775;DHT22;31340;51.402;0.016;2022-09-20T18:44:28;20.70;59.90
44775;DHT22;31340;51.402;0.016;2022-09-20T18:47:02;20.60;60.20
44775;DHT22;31340;51.402;0.016;2022-09-20T18:49:30;20.50;60.60
44775;DHT22;31340;51.402;0.016;2022-09-20T18:51:58;20.50;60.90
44775;DHT22;31340;51.402;0.016;2022-09-20T18:54:25;20.40;61.10
44775;DHT22;31340;51.402;0.016;2022-09-20T18:56:57;20.40;61.40
44775;DHT22;31340;51.402;0.016;2022-09-20T18:59:26;20.30;61.60
44775;DHT22;31340;51.402;0.016;2022-09-20T19:05:36;20.20;62.20
44775;DHT22;31340;51.402;0.016;2022-09-20T19:08:05;20.10;62.30
44775;DHT22;31340;51.402;0.016;2022-09-20T19:10:42;20.00;62.40
44775;DHT22;31340;51.402;0.016;2022-09-20T19:21:27;19.70;64.30
44775;DHT22;31340;51.402;0.016;2022-09-20T19:26:31;19.50;65.80
44775;DHT22;31340;51.402;0.016;2022-09-20T19:28:59;19.50;66.70
44775;DHT22;31340;51.402;0.016;2022-09-20T19:33:58;19.30;68.10
44775;DHT22;31340;51.402;0.016;2022-09-20T19:47:38;19.00;71.30
44775;DHT22;31340;51.402;0.016;2022-09-20T19:50:28;19.00;71.70
44775;DHT22;31340;51.402;0.016;2022-09-20T19:53:00;18.90;72.40
44775;DHT22;31340;51.402;0.016;2022-09-20T19:55:31;18.90;72.40
44775;DHT22;31340;51.402;0.016;2022-09-20T19:58:00;18.80;72.70
44775;DHT22;31340;51.402;0.016;2022-09-20T20:00:28;18.80;73.10
44775;DHT22;31340;51.402;0.016;2022-09-20T20:02:58;18.80;73.50
44775;DHT22;31340;51.402;0.016;2022-09-20T20:05:26;18.80;73.90
44775;DHT22;31340;51.402;0.016;2022-09-20T20:08:12;18.70;74.10
44775;DHT22;31340;51.402;0.016;2022-09-20T20:16:29;18.60;74.70
44775;DHT22;31340;51.402;0.016;2022-09-20T20:19:25;18.60;75.20
44775;DHT22;31340;51.402;0.016;2022-09-20T20:24:45;18.50;75.60
44775;DHT22;31340;51.402;0.016;2022-09-20T20:27:16;18.40;76.10
44775;DHT22;31340;51.402;0.016;2022-09-20T20:29:43;18.30;76.10
44775;DHT22;31340;51.402;0.016;2022-09-20T20:32:11;18.30;76.30
44775;DHT22;31340;51.402;0.016;2022-09-20T20:34:39;18.20;76.70
44775;DHT22;31340;51.402;0.016;2022-09-20T20:37:08;18.20;77.10
44775;DHT22;31340;51.402;0.016;2022-09-20T20:39:35;18.10;77.30
44775;DHT22;31340;51.402;0.016;2022-09-20T20:42:03;18.10;77.50
44775;DHT22;31340;51.402;0.016;2022-09-20T20:44:33;18.00;78.00
44775;DHT22;31340;51.402;0.016;2022-09-20T20:47:05;18.00;78.30
44775;DHT22;31340;51.402;0.016;2022-09-20T20:49:33;17.90;78.60
44775;DHT22;31340;51.402;0.016;2022-09-20T20:52:02;17.90;78.90
44775;DHT22;31340;51.402;0.016;2022-09-20T20:54:31;17.80;79.20
44775;DHT22;31340;51.402;0.016;2022-09-20T20:56:59;17.80;79.50
44775;DHT22;31340;51.402;0.016;2022-09-20T20:59:27;17.70;79.90
44775;DHT22;31340;51.402;0.016;2022-09-20T21:01:54;17.70;80.10
44775;DHT22;31340;51.402;0.016;2022-09-20T21:04:22;17.70;80.20
44775;DHT22;31340;51.402;0.016;2022-09-20T21:06:51;17.70;80.50
44775;DHT22;31340;51.402;0.016;2022-09-20T21:09:19;17.60;80.70
44775;DHT22;31340;51.402;0.016;2022-09-20T21:11:46;17.60;80.90
44775;DHT22;31340;51.402;0.016;2022-09-20T21:14:14;17.60;81.20
44775;DHT22;31340;51.402;0.016;2022-09-20T21:16:42;17.60;81.20
44775;DHT22;31340;51.402;0.016;2022-09-20T21:19:11;17.60;81.30
44775;DHT22;31340;51.402;0.016;2022-09-20T21:21:42;17.50;81.50
44775;DHT22;31340;51.402;0.016;2022-09-20T21:24:11;17.60;80.90
44775;DHT22;31340;51.402;0.016;2022-09-20T21:26:39;17.40;81.50
44775;DHT22;31340;51.402;0.016;2022-09-20T21:29:09;17.30;81.80
44775;DHT22;31340;51.402;0.016;2022-09-20T21:31:39;17.30;82.10
44775;DHT22;31340;51.402;0.016;2022-09-20T21:34:08;17.30;82.30
44775;DHT22;31340;51.402;0.016;2022-09-20T21:36:37;17.20;82.70
44775;DHT22;31340;51.402;0.016;2022-09-20T21:39:06;17.20;82.90
44775;DHT22;31340;51.402;0.016;2022-09-20T21:41:35;17.20;83.20
44775;DHT22;31340;51.402;0.016;2022-09-20T21:44:04;17.10;83.50
44775;DHT22;31340;51.402;0.016;2022-09-20T21:46:34;17.10;83.80
44775;DHT22;31340;51.402;0.016;2022-09-20T21:49:05;17.00;84.00
44775;DHT22;31340;51.402;0.016;2022-09-20T21:51:33;16.90;85.00
44775;DHT22;31340;51.402;0.016;2022-09-20T21:54:01;16.90;84.40
44775;DHT22;31340;51.402;0.016;2022-09-20T21:56:34;16.90;84.60